sensor_id;sensor_type;location;lat;lon;timestamp;P1;durP1;ratioP1;P2;durP2;ratioP2
26634;SDS011;14490;54.208;37.686;2023-09-12T00:00:17;21.10;;;11.98;;
26634;SDS011;14490;54.208;37.686;2023-09-12T00:02:45;19.52;;;12.00;;
26634;SDS011;14490;54.208;37.686;2023-09-12T00:05:12;18.73;;;11.73;;
26634;SDS011;14490;54.208;37.686;2023-09-12T00:07:39;22.27;;;12.57;;
26634;SDS011;14490;54.208;37.686;2023-09-12T00:10:06;19.25;;;11.13;;
26634;SDS011;14490;54.208;37.686;2023-09-12T00:12:34;23.75;;;12.65;;
26634;SDS011;14490;54.208;37.686;2023-09-12T00:15:01;26.38;;;12.63;;
26634;SDS011;14490;54.208;37.686;2023-09-12T00:17:29;22.38;;;11.80;;
26634;SDS011;14490;54.208;37.686;2023-09-12T00:19:58;21.83;;;12.43;;
26634;SDS011;14490;54.208;37.686;2023-09-12T00:22:25;19.48;;;11.98;;
26634;SDS011;14490;54.208;37.686;2023-09-12T00:24:52;17.65;;;11.90;;
26634;SDS011;14490;54.208;37.686;2023-09-12T00:27:19;22.75;;;12.40;;
26634;SDS011;14490;54.208;37.686;2023-09-12T00:29:46;24.20;;;12.75;;
26634;SDS011;14490;54.208;37.686;2023-09-12T00:32:12;19.73;;;11.13;;
26634;SDS011;14490;54.208;37.686;2023-09-12T00:34:39;18.75;;;11.93;;
26634;SDS011;14490;54.208;37.686;2023-09-12T00:37:08;25.73;;;13.13;;
26634;SDS011;14490;54.208;37.686;2023-09-12T00:39:35;24.10;;;12.63;;
26634;SDS011;14490;54.208;37.686;2023-09-12T00:42:02;18.92;;;11.80;;
26634;SDS011;14490;54.208;37.686;2023-09-12T00:44:30;22.15;;;12.45;;
26634;SDS011;14490;54.208;37.686;2023-09-12T00:46:57;25.00;;;11.90;;
26634;SDS011;14490;54.208;37.686;2023-09-12T00:49:24;22.15;;;12.48;;
26634;SDS011;14490;54.208;37.686;2023-09-12T00:51:51;20.92;;;12.23;;
26634;SDS011;14490;54.208;37.686;2023-09-12T00:54:20;19.05;;;12.45;;
26634;SDS011;14490;54.208;37.686;2023-09-12T00:56:47;22.75;;;12.43;;
26634;SDS011;14490;54.208;37.686;2023-09-12T00:59:14;18.52;;;11.32;;
26634;SDS011;14490;54.208;37.686;2023-09-12T01:01:42;20.70;;;10.95;;
26634;SDS011;14490;54.208;37.686;2023-09-12T01:04:09;16.63;;;11.65;;
26634;SDS011;14490;54.208;37.686;2023-09-12T01:06:37;17.08;;;11.35;;
26634;SDS011;14490;54.208;37.686;2023-09-12T01:09:05;20.13;;;11.82;;
26634;SDS011;14490;54.208;37.686;2023-09-12T01:11:34;24.88;;;11.93;;
26634;SDS011;14490;54.208;37.686;2023-09-12T01:14:01;21.42;;;11.65;;
26634;SDS011;14490;54.208;37.686;2023-09-12T01:16:28;18.00;;;11.60;;
26634;SDS011;14490;54.208;37.686;2023-09-12T01:18:55;25.63;;;11.98;;
26634;SDS011;14490;54.208;37.686;2023-09-12T01:29:51;25.92;;;13.35;;
26634;SDS011;14490;54.208;37.686;2023-09-12T01:32:20;20.60;;;12.45;;
26634;SDS011;14490;54.208;37.686;2023-09-12T01:34:47;25.33;;;12.80;;
26634;SDS011;14490;54.208;37.686;2023-09-12T01:37:14;19.70;;;11.77;;
26634;SDS011;14490;54.208;37.686;2023-09-12T01:39:41;24.58;;;13.93;;
26634;SDS011;14490;54.208;37.686;2023-09-12T01:42:08;22.02;;;11.18;;
26634;SDS011;14490;54.208;37.686;2023-09-12T01:44:38;19.90;;;12.02;;
26634;SDS011;14490;54.208;37.686;2023-09-12T01:47:06;24.30;;;13.50;;
26634;SDS011;14490;54.208;37.686;2023-09-12T01:49:33;20.13;;;11.93;;
26634;SDS011;14490;54.208;37.686;2023-09-12T01:52:00;22.70;;;13.20;;
26634;SDS011;14490;54.208;37.686;2023-09-12T01:54:28;23.38;;;12.15;;
26634;SDS011;14490;54.208;37.686;2023-09-12T01:56:55;23.48;;;12.43;;
26634;SDS011;14490;54.208;37.686;2023-09-12T01:59:24;20.90;;;12.48;;
26634;SDS011;14490;54.208;37.686;2023-09-12T02:01:52;21.05;;;12.32;;
26634;SDS011;14490;54.208;37.686;2023-09-12T02:04:19;23.58;;;11.10;;
26634;SDS011;14490;54.208;37.686;2023-09-12T02:06:46;20.15;;;10.50;;
26634;SDS011;14490;54.208;37.686;2023-09-12T02:09:13;21.75;;;11.38;;
26634;SDS011;14490;54.208;37.686;2023-09-12T02:11:40;27.77;;;11.27;;
26634;SDS011;14490;54.208;37.686;2023-09-12T02:14:07;17.42;;;11.05;;
26634;SDS011;14490;54.208;37.686;2023-09-12T02:16:36;23.77;;;11.73;;
26634;SDS011;14490;54.208;37.686;2023-09-12T02:19:05;17.15;;;10.80;;
26634;SDS011;14490;54.208;37.686;2023-09-12T02:21:32;19.77;;;11.98;;
26634;SDS011;14490;54.208;37.686;2023-09-12T02:23:59;19.67;;;11.57;;
26634;SDS011;14490;54.208;37.686;2023-09-12T02:26:26;17.58;;;11.50;;
26634;SDS011;14490;54.208;37.686;2023-09-12T02:28:53;19.13;;;10.75;;
26634;SDS011;14490;54.208;37.686;2023-09-12T02:31:20;16.55;;;10.65;;
26634;SDS011;14490;54.208;37.686;2023-09-12T02:33:47;20.35;;;11.55;;
26634;SDS011;14490;54.208;37.686;2023-09-12T02:36:15;20.00;;;11.77;;
26634;SDS011;14490;54.208;37.686;2023-09-12T02:38:42;13.77;;;9.60;;
26634;SDS011;14490;54.208;37.686;2023-09-12T02:41:09;17.33;;;9.98;;
26634;SDS011;14490;54.208;37.686;2023-09-12T02:43:36;18.60;;;10.20;;
26634;SDS011;14490;54.208;37.686;2023-09-12T02:46:03;13.60;;;9.07;;
26634;SDS011;14490;54.208;37.686;2023-09-12T02:48:30;14.15;;;9.07;;
26634;SDS011;14490;54.208;37.686;2023-09-12T02:50:57;13.77;;;7.80;;
26634;SDS011;14490;54.208;37.686;2023-09-12T02:53:26;14.43;;;8.27;;
26634;SDS011;14490;54.208;37.686;2023-09-12T02:55:53;15.98;;;9.00;;
26634;SDS011;14490;54.208;37.686;2023-09-12T02:58:20;14.30;;;7.78;;
26634;SDS011;14490;54.208;37.686;2023-09-12T03:00:47;10.60;;;8.13;;
26634;SDS011;14490;54.208;37.686;2023-09-12T03:03:15;15.88;;;8.50;;
26634;SDS011;14490;54.208;37.686;2023-09-12T03:05:42;13.18;;;7.53;;
26634;SDS011;14490;54.208;37.686;2023-09-12T03:08:09;14.05;;;8.80;;
26634;SDS011;14490;54.208;37.686;2023-09-12T03:10:37;13.70;;;9.93;;
26634;SDS011;14490;54.208;37.686;2023-09-12T03:13:04;12.07;;;8.98;;
26634;SDS011;14490;54.208;37.686;2023-09-12T03:15:35;16.45;;;9.18;;
26634;SDS011;14490;54.208;37.686;2023-09-12T03:18:04;14.20;;;8.65;;
26634;SDS011;14490;54.208;37.686;2023-09-12T03:20:31;16.35;;;9.57;;
26634;SDS011;14490;54.208;37.686;2023-09-12T03:22:58;22.25;;;10.55;;
26634;SDS011;14490;54.208;37.686;2023-09-12T03:25:25;15.95;;;8.52;;
26634;SDS011;14490;54.208;37.686;2023-09-12T03:27:53;29.75;;;9.48;;
26634;SDS011;14490;54.208;37.686;2023-09-12T03:30:20;21.48;;;10.35;;
26634;SDS011;14490;54.208;37.686;2023-09-12T03:32:47;19.17;;;10.93;;
26634;SDS011;14490;54.208;37.686;2023-09-12T03:35:14;22.30;;;11.00;;
26634;SDS011;14490;54.208;37.686;2023-09-12T03:37:41;20.88;;;11.05;;
26634;SDS011;14490;54.208;37.686;2023-09-12T03:40:09;21.92;;;10.45;;
26634;SDS011;14490;54.208;37.686;2023-09-12T03:45:45;26.80;;;11.57;;
26634;SDS011;14490;54.208;37.686;2023-09-12T03:48:12;27.48;;;12.75;;
26634;SDS011;14490;54.208;37.686;2023-09-12T03:50:39;32.05;;;12.02;;
26634;SDS011;14490;54.208;37.686;2023-09-12T03:53:06;23.92;;;11.88;;
26634;SDS011;14490;54.208;37.686;2023-09-12T03:55:47;26.65;;;10.70;;
26634;SDS011;14490;54.208;37.686;2023-09-12T03:58:45;17.67;;;9.82;;
26634;SDS011;14490;54.208;37.686;2023-09-12T04:01:12;20.02;;;9.43;;
26634;SDS011;14490;54.208;37.686;2023-09-12T04:03:39;20.65;;;10.23;;
26634;SDS011;14490;54.208;37.686;2023-09-12T04:06:06;20.52;;;9.88;;
26634;SDS011;14490;54.208;37.686;2023-09-12T04:08:36;22.83;;;10.88;;
26634;SDS011;14490;54.208;37.686;2023-09-12T04:11:08;23.17;;;10.18;;
26634;SDS011;14490;54.208;37.686;2023-09-12T04:13:46;18.42;;;9.73;;
26634;SDS011;14490;54.208;37.686;2023-09-12T04:16:12;17.92;;;10.80;;
26634;SDS011;14490;54.208;37.686;2023-09-12T04:18:44;20.02;;;10.65;;
26634;SDS011;14490;54.208;37.686;2023-09-12T04:21:15;20.52;;;11.70;;
26634;SDS011;14490;54.208;37.686;2023-09-12T04:23:45;24.60;;;12.25;;
26634;SDS011;14490;54.208;37.686;2023-09-12T04:26:18;19.52;;;11.18;;
26634;SDS011;14490;54.208;37.686;2023-09-12T04:28:50;26.13;;;12.15;;
26634;SDS011;14490;54.208;37.686;2023-09-12T04:31:17;23.60;;;12.40;;
26634;SDS011;14490;54.208;37.686;2023-09-12T04:33:45;25.85;;;13.20;;
26634;SDS011;14490;54.208;37.686;2023-09-12T04:36:14;22.50;;;13.05;;
26634;SDS011;14490;54.208;37.686;2023-09-12T04:38:44;25.20;;;13.48;;
26634;SDS011;14490;54.208;37.686;2023-09-12T04:41:15;26.75;;;13.77;;
26634;SDS011;14490;54.208;37.686;2023-09-12T04:43:51;34.53;;;16.45;;
26634;SDS011;14490;54.208;37.686;2023-09-12T04:46:18;27.20;;;14.80;;
26634;SDS011;14490;54.208;37.686;2023-09-12T04:48:47;27.67;;;15.00;;
26634;SDS011;14490;54.208;37.686;2023-09-12T04:51:30;25.20;;;14.02;;
26634;SDS011;14490;54.208;37.686;2023-09-12T04:53:59;24.10;;;13.60;;
26634;SDS011;14490;54.208;37.686;2023-09-12T04:56:27;25.10;;;13.57;;
26634;SDS011;14490;54.208;37.686;2023-09-12T04:58:55;26.65;;;15.30;;
26634;SDS011;14490;54.208;37.686;2023-09-12T05:01:25;21.90;;;13.50;;
26634;SDS011;14490;54.208;37.686;2023-09-12T05:03:52;23.45;;;13.10;;
26634;SDS011;14490;54.208;37.686;2023-09-12T05:06:19;20.13;;;11.48;;
26634;SDS011;14490;54.208;37.686;2023-09-12T05:08:47;19.65;;;11.60;;
26634;SDS011;14490;54.208;37.686;2023-09-12T05:11:14;21.27;;;11.63;;
26634;SDS011;14490;54.208;37.686;2023-09-12T05:13:41;23.20;;;12.70;;
26634;SDS011;14490;54.208;37.686;2023-09-12T05:16:09;19.35;;;11.15;;
26634;SDS011;14490;54.208;37.686;2023-09-12T05:18:42;17.40;;;11.27;;
26634;SDS011;14490;54.208;37.686;2023-09-12T05:21:09;21.20;;;10.98;;
26634;SDS011;14490;54.208;37.686;2023-09-12T05:23:36;18.65;;;12.15;;
26634;SDS011;14490;54.208;37.686;2023-09-12T05:26:03;24.80;;;12.70;;
26634;SDS011;14490;54.208;37.686;2023-09-12T05:28:30;22.90;;;12.68;;
26634;SDS011;14490;54.208;37.686;2023-09-12T05:30:57;22.73;;;13.65;;
26634;SDS011;14490;54.208;37.686;2023-09-12T05:33:26;21.63;;;13.40;;
26634;SDS011;14490;54.208;37.686;2023-09-12T05:35:52;25.48;;;13.63;;
26634;SDS011;14490;54.208;37.686;2023-09-12T05:38:19;29.20;;;13.73;;
26634;SDS011;14490;54.208;37.686;2023-09-12T05:40:46;20.35;;;13.15;;
26634;SDS011;14490;54.208;37.686;2023-09-12T05:43:15;22.35;;;13.77;;
26634;SDS011;14490;54.208;37.686;2023-09-12T05:45:42;24.20;;;13.20;;
26634;SDS011;14490;54.208;37.686;2023-09-12T05:48:09;21.15;;;14.85;;
26634;SDS011;14490;54.208;37.686;2023-09-12T05:50:37;32.50;;;17.10;;
26634;SDS011;14490;54.208;37.686;2023-09-12T05:53:04;34.28;;;19.52;;
26634;SDS011;14490;54.208;37.686;2023-09-12T05:55:31;32.88;;;18.83;;
26634;SDS011;14490;54.208;37.686;2023-09-12T05:57:58;31.33;;;18.00;;
26634;SDS011;14490;54.208;37.686;2023-09-12T06:00:25;27.65;;;18.58;;
26634;SDS011;14490;54.208;37.686;2023-09-12T06:02:52;33.40;;;17.33;;
26634;SDS011;14490;54.208;37.686;2023-09-12T06:05:19;26.30;;;17.17;;
26634;SDS011;14490;54.208;37.686;2023-09-12T06:07:47;27.13;;;16.95;;
26634;SDS011;14490;54.208;37.686;2023-09-12T06:10:14;23.35;;;14.68;;
26634;SDS011;14490;54.208;37.686;2023-09-12T06:12:41;27.45;;;16.88;;
26634;SDS011;14490;54.208;37.686;2023-09-12T06:15:09;23.30;;;15.15;;
26634;SDS011;14490;54.208;37.686;2023-09-12T06:17:36;30.05;;;14.98;;
26634;SDS011;14490;54.208;37.686;2023-09-12T06:20:03;23.77;;;14.70;;
26634;SDS011;14490;54.208;37.686;2023-09-12T06:22:31;27.02;;;16.65;;
26634;SDS011;14490;54.208;37.686;2023-09-12T06:25:00;20.20;;;12.82;;
26634;SDS011;14490;54.208;37.686;2023-09-12T06:27:28;18.38;;;12.65;;
26634;SDS011;14490;54.208;37.686;2023-09-12T06:29:56;20.25;;;13.07;;
26634;SDS011;14490;54.208;37.686;2023-09-12T06:32:23;19.27;;;12.02;;
26634;SDS011;14490;54.208;37.686;2023-09-12T06:34:51;18.35;;;12.30;;
26634;SDS011;14490;54.208;37.686;2023-09-12T06:37:18;12.63;;;10.50;;
26634;SDS011;14490;54.208;37.686;2023-09-12T06:39:48;13.40;;;10.30;;
26634;SDS011;14490;54.208;37.686;2023-09-12T06:42:17;14.50;;;10.50;;
26634;SDS011;14490;54.208;37.686;2023-09-12T06:44:44;12.98;;;9.82;;
26634;SDS011;14490;54.208;37.686;2023-09-12T06:47:11;16.60;;;10.15;;
26634;SDS011;14490;54.208;37.686;2023-09-12T06:49:38;12.30;;;10.40;;
26634;SDS011;14490;54.208;37.686;2023-09-12T06:52:05;14.25;;;10.70;;
26634;SDS011;14490;54.208;37.686;2023-09-12T06:54:34;12.18;;;9.57;;
26634;SDS011;14490;54.208;37.686;2023-09-12T06:57:01;11.32;;;9.48;;
26634;SDS011;14490;54.208;37.686;2023-09-12T06:59:30;13.57;;;10.50;;
26634;SDS011;14490;54.208;37.686;2023-09-12T07:01:57;13.02;;;9.93;;
26634;SDS011;14490;54.208;37.686;2023-09-12T07:04:24;13.63;;;11.00;;
26634;SDS011;14490;54.208;37.686;2023-09-12T07:06:51;14.27;;;10.45;;
26634;SDS011;14490;54.208;37.686;2023-09-12T07:09:21;16.42;;;11.38;;
26634;SDS011;14490;54.208;37.686;2023-09-12T07:11:51;15.18;;;9.85;;
26634;SDS011;14490;54.208;37.686;2023-09-12T07:14:18;13.30;;;10.60;;
26634;SDS011;14490;54.208;37.686;2023-09-12T07:16:47;12.52;;;10.90;;
26634;SDS011;14490;54.208;37.686;2023-09-12T07:19:14;15.25;;;10.32;;
26634;SDS011;14490;54.208;37.686;2023-09-12T07:21:41;15.35;;;10.77;;
26634;SDS011;14490;54.208;37.686;2023-09-12T07:24:08;13.02;;;10.30;;
26634;SDS011;14490;54.208;37.686;2023-09-12T07:26:38;16.67;;;10.93;;
26634;SDS011;14490;54.208;37.686;2023-09-12T07:29:05;13.13;;;9.68;;
26634;SDS011;14490;54.208;37.686;2023-09-12T07:31:32;12.90;;;10.07;;
26634;SDS011;14490;54.208;37.686;2023-09-12T07:34:00;14.77;;;10.43;;
26634;SDS011;14490;54.208;37.686;2023-09-12T07:36:27;14.43;;;9.93;;
26634;SDS011;14490;54.208;37.686;2023-09-12T07:38:55;10.52;;;8.23;;
26634;SDS011;14490;54.208;37.686;2023-09-12T07:41:22;11.32;;;8.40;;
26634;SDS011;14490;54.208;37.686;2023-09-12T07:43:49;11.02;;;8.10;;
26634;SDS011;14490;54.208;37.686;2023-09-12T07:46:16;10.02;;;9.02;;
26634;SDS011;14490;54.208;37.686;2023-09-12T07:48:43;10.23;;;8.20;;
26634;SDS011;14490;54.208;37.686;2023-09-12T07:51:15;9.63;;;7.28;;
26634;SDS011;14490;54.208;37.686;2023-09-12T07:53:42;8.45;;;7.53;;
26634;SDS011;14490;54.208;37.686;2023-09-12T07:56:10;7.97;;;6.90;;
26634;SDS011;14490;54.208;37.686;2023-09-12T07:58:39;11.45;;;7.50;;
26634;SDS011;14490;54.208;37.686;2023-09-12T08:01:06;11.07;;;6.65;;
26634;SDS011;14490;54.208;37.686;2023-09-12T08:03:33;9.75;;;7.32;;
26634;SDS011;14490;54.208;37.686;2023-09-12T08:06:04;7.72;;;6.43;;
26634;SDS011;14490;54.208;37.686;2023-09-12T08:08:33;8.50;;;6.40;;
26634;SDS011;14490;54.208;37.686;2023-09-12T08:11:03;6.82;;;6.07;;
26634;SDS011;14490;54.208;37.686;2023-09-12T08:13:32;6.43;;;5.80;;
26634;SDS011;14490;54.208;37.686;2023-09-12T08:15:59;6.68;;;5.97;;
26634;SDS011;14490;54.208;37.686;2023-09-12T08:18:29;8.30;;;5.85;;
26634;SDS011;14490;54.208;37.686;2023-09-12T08:20:59;7.55;;;5.57;;
26634;SDS011;14490;54.208;37.686;2023-09-12T08:23:27;9.32;;;5.93;;
26634;SDS011;14490;54.208;37.686;2023-09-12T08:25:56;9.35;;;5.25;;
26634;SDS011;14490;54.208;37.686;2023-09-12T08:28:23;5.68;;;5.15;;
26634;SDS011;14490;54.208;37.686;2023-09-12T08:30:56;5.65;;;5.07;;
26634;SDS011;14490;54.208;37.686;2023-09-12T08:33:23;10.43;;;5.13;;
26634;SDS011;14490;54.208;37.686;2023-09-12T08:35:50;5.85;;;5.10;;
26634;SDS011;14490;54.208;37.686;2023-09-12T08:38:17;6.20;;;5.60;;
26634;SDS011;14490;54.208;37.686;2023-09-12T08:40:47;5.72;;;5.13;;
26634;SDS011;14490;54.208;37.686;2023-09-12T08:43:17;7.28;;;6.18;;
26634;SDS011;14490;54.208;37.686;2023-09-12T08:45:44;6.13;;;5.53;;
26634;SDS011;14490;54.208;37.686;2023-09-12T08:48:11;10.05;;;5.70;;
26634;SDS011;14490;54.208;37.686;2023-09-12T08:50:39;5.07;;;4.57;;
26634;SDS011;14490;54.208;37.686;2023-09-12T08:53:09;6.72;;;5.10;;
26634;SDS011;14490;54.208;37.686;2023-09-12T08:55:36;8.80;;;5.15;;
26634;SDS011;14490;54.208;37.686;2023-09-12T08:58:04;5.65;;;4.75;;
26634;SDS011;14490;54.208;37.686;2023-09-12T09:00:33;6.15;;;4.35;;
26634;SDS011;14490;54.208;37.686;2023-09-12T09:03:03;4.88;;;4.47;;
26634;SDS011;14490;54.208;37.686;2023-09-12T09:05:30;4.97;;;4.43;;
26634;SDS011;14490;54.208;37.686;2023-09-12T09:08:00;8.65;;;5.30;;
26634;SDS011;14490;54.208;37.686;2023-09-12T09:10:30;5.90;;;5.15;;
26634;SDS011;14490;54.208;37.686;2023-09-12T09:12:58;5.05;;;4.43;;
26634;SDS011;14490;54.208;37.686;2023-09-12T09:15:25;5.38;;;4.82;;
26634;SDS011;14490;54.208;37.686;2023-09-12T09:17:54;6.13;;;5.53;;
26634;SDS011;14490;54.208;37.686;2023-09-12T09:20:26;6.57;;;4.80;;
26634;SDS011;14490;54.208;37.686;2023-09-12T09:22:58;5.65;;;4.97;;
26634;SDS011;14490;54.208;37.686;2023-09-12T09:27:52;8.02;;;5.18;;
26634;SDS011;14490;54.208;37.686;2023-09-12T09:30:22;4.45;;;4.05;;
26634;SDS011;14490;54.208;37.686;2023-09-12T09:33:07;4.25;;;3.85;;
26634;SDS011;14490;54.208;37.686;2023-09-12T09:35:34;3.50;;;3.20;;
26634;SDS011;14490;54.208;37.686;2023-09-12T09:38:06;4.50;;;3.85;;
26634;SDS011;14490;54.208;37.686;2023-09-12T09:40:33;4.75;;;3.78;;
26634;SDS011;14490;54.208;37.686;2023-09-12T09:43:02;6.88;;;4.15;;
26634;SDS011;14490;54.208;37.686;2023-09-12T09:45:29;4.55;;;4.03;;
26634;SDS011;14490;54.208;37.686;2023-09-12T09:47:57;3.85;;;3.55;;
26634;SDS011;14490;54.208;37.686;2023-09-12T09:50:26;7.30;;;3.92;;
26634;SDS011;14490;54.208;37.686;2023-09-12T09:52:54;5.18;;;3.45;;
26634;SDS011;14490;54.208;37.686;2023-09-12T09:55:23;6.28;;;4.05;;
26634;SDS011;14490;54.208;37.686;2023-09-12T09:57:50;6.55;;;3.78;;
26634;SDS011;14490;54.208;37.686;2023-09-12T10:00:19;6.68;;;3.83;;
26634;SDS011;14490;54.208;37.686;2023-09-12T10:02:50;7.22;;;4.07;;
26634;SDS011;14490;54.208;37.686;2023-09-12T10:05:18;5.70;;;4.50;;
26634;SDS011;14490;54.208;37.686;2023-09-12T10:07:48;5.90;;;4.40;;
26634;SDS011;14490;54.208;37.686;2023-09-12T10:10:16;4.88;;;4.32;;
26634;SDS011;14490;54.208;37.686;2023-09-12T10:12:48;6.80;;;4.63;;
26634;SDS011;14490;54.208;37.686;2023-09-12T10:15:17;8.48;;;4.38;;
26634;SDS011;14490;54.208;37.686;2023-09-12T10:17:46;7.75;;;4.95;;
26634;SDS011;14490;54.208;37.686;2023-09-12T10:20:15;4.75;;;4.10;;
26634;SDS011;14490;54.208;37.686;2023-09-12T10:22:43;6.00;;;4.32;;
26634;SDS011;14490;54.208;37.686;2023-09-12T10:25:17;5.05;;;3.30;;
26634;SDS011;14490;54.208;37.686;2023-09-12T10:27:44;5.15;;;3.80;;
26634;SDS011;14490;54.208;37.686;2023-09-12T10:30:11;4.60;;;3.30;;
26634;SDS011;14490;54.208;37.686;2023-09-12T10:32:44;6.13;;;3.83;;
26634;SDS011;14490;54.208;37.686;2023-09-12T10:35:14;3.95;;;3.17;;
26634;SDS011;14490;54.208;37.686;2023-09-12T10:37:44;3.78;;;3.42;;
26634;SDS011;14490;54.208;37.686;2023-09-12T10:40:15;4.32;;;3.35;;
26634;SDS011;14490;54.208;37.686;2023-09-12T10:42:47;3.85;;;3.40;;
26634;SDS011;14490;54.208;37.686;2023-09-12T10:45:17;5.13;;;2.63;;
26634;SDS011;14490;54.208;37.686;2023-09-12T10:47:48;6.25;;;3.90;;
26634;SDS011;14490;54.208;37.686;2023-09-12T10:50:15;5.35;;;3.90;;
26634;SDS011;14490;54.208;37.686;2023-09-12T10:52:46;4.10;;;3.70;;
26634;SDS011;14490;54.208;37.686;2023-09-12T10:55:19;3.70;;;3.35;;
26634;SDS011;14490;54.208;37.686;2023-09-12T11:00:30;4.75;;;3.58;;
26634;SDS011;14490;54.208;37.686;2023-09-12T11:03:10;4.35;;;3.67;;
26634;SDS011;14490;54.208;37.686;2023-09-12T11:06:05;5.20;;;3.60;;
26634;SDS011;14490;54.208;37.686;2023-09-12T11:11:54;8.68;;;4.10;;
26634;SDS011;14490;54.208;37.686;2023-09-12T11:14:25;4.10;;;3.70;;
26634;SDS011;14490;54.208;37.686;2023-09-12T11:19:53;12.65;;;6.15;;
26634;SDS011;14490;54.208;37.686;2023-09-12T11:22:21;4.13;;;3.72;;
26634;SDS011;14490;54.208;37.686;2023-09-12T11:24:53;3.70;;;3.30;;
26634;SDS011;14490;54.208;37.686;2023-09-12T11:27:23;7.35;;;4.40;;
26634;SDS011;14490;54.208;37.686;2023-09-12T11:29:51;5.13;;;3.58;;
26634;SDS011;14490;54.208;37.686;2023-09-12T11:32:30;4.60;;;3.50;;
26634;SDS011;14490;54.208;37.686;2023-09-12T11:34:59;6.55;;;4.15;;
26634;SDS011;14490;54.208;37.686;2023-09-12T11:37:26;3.95;;;3.63;;
26634;SDS011;14490;54.208;37.686;2023-09-12T11:39:58;4.90;;;3.10;;
26634;SDS011;14490;54.208;37.686;2023-09-12T11:42:30;4.15;;;3.35;;
26634;SDS011;14490;54.208;37.686;2023-09-12T11:44:57;6.05;;;3.30;;
26634;SDS011;14490;54.208;37.686;2023-09-12T11:47:24;5.80;;;3.47;;
26634;SDS011;14490;54.208;37.686;2023-09-12T11:49:51;4.80;;;3.78;;
26634;SDS011;14490;54.208;37.686;2023-09-12T11:52:18;5.82;;;3.58;;
26634;SDS011;14490;54.208;37.686;2023-09-12T11:54:50;6.70;;;4.63;;
26634;SDS011;14490;54.208;37.686;2023-09-12T11:57:17;5.90;;;4.07;;
26634;SDS011;14490;54.208;37.686;2023-09-12T11:59:45;5.97;;;3.65;;
26634;SDS011;14490;54.208;37.686;2023-09-12T12:02:20;4.18;;;3.47;;
26634;SDS011;14490;54.208;37.686;2023-09-12T12:04:49;6.18;;;3.28;;
26634;SDS011;14490;54.208;37.686;2023-09-12T12:07:19;5.93;;;3.65;;
26634;SDS011;14490;54.208;37.686;2023-09-12T12:09:49;6.72;;;4.10;;
26634;SDS011;14490;54.208;37.686;2023-09-12T12:12:18;6.32;;;4.03;;
26634;SDS011;14490;54.208;37.686;2023-09-12T12:14:47;4.50;;;3.00;;
26634;SDS011;14490;54.208;37.686;2023-09-12T12:17:15;3.38;;;3.08;;
26634;SDS011;14490;54.208;37.686;2023-09-12T12:19:44;3.85;;;2.83;;
26634;SDS011;14490;54.208;37.686;2023-09-12T12:22:12;4.05;;;2.97;;
26634;SDS011;14490;54.208;37.686;2023-09-12T12:24:40;2.92;;;2.72;;
26634;SDS011;14490;54.208;37.686;2023-09-12T12:27:08;4.35;;;2.80;;
26634;SDS011;14490;54.208;37.686;2023-09-12T12:29:36;4.35;;;3.17;;
26634;SDS011;14490;54.208;37.686;2023-09-12T12:32:06;3.35;;;3.05;;
26634;SDS011;14490;54.208;37.686;2023-09-12T12:34:37;3.28;;;2.90;;
26634;SDS011;14490;54.208;37.686;2023-09-12T12:37:04;4.32;;;3.30;;
26634;SDS011;14490;54.208;37.686;2023-09-12T12:39:31;4.10;;;2.60;;
26634;SDS011;14490;54.208;37.686;2023-09-12T12:41:58;2.67;;;2.47;;
26634;SDS011;14490;54.208;37.686;2023-09-12T12:44:32;2.83;;;2.53;;
26634;SDS011;14490;54.208;37.686;2023-09-12T12:47:08;4.22;;;2.95;;
26634;SDS011;14490;54.208;37.686;2023-09-12T12:49:38;3.05;;;2.30;;
26634;SDS011;14490;54.208;37.686;2023-09-12T12:52:05;3.50;;;2.60;;
26634;SDS011;14490;54.208;37.686;2023-09-12T12:54:35;3.50;;;2.47;;
26634;SDS011;14490;54.208;37.686;2023-09-12T12:57:02;3.28;;;2.70;;
26634;SDS011;14490;54.208;37.686;2023-09-12T12:59:30;3.03;;;2.55;;
26634;SDS011;14490;54.208;37.686;2023-09-12T13:02:01;6.10;;;2.60;;
26634;SDS011;14490;54.208;37.686;2023-09-12T13:04:36;3.28;;;2.35;;
26634;SDS011;14490;54.208;37.686;2023-09-12T13:07:03;5.28;;;3.10;;
26634;SDS011;14490;54.208;37.686;2023-09-12T13:09:31;2.95;;;2.65;;
26634;SDS011;14490;54.208;37.686;2023-09-12T13:11:58;6.72;;;2.60;;
26634;SDS011;14490;54.208;37.686;2023-09-12T13:14:27;9.80;;;2.80;;
26634;SDS011;14490;54.208;37.686;2023-09-12T13:16:57;5.72;;;2.53;;
26634;SDS011;14490;54.208;37.686;2023-09-12T13:19:24;2.80;;;2.30;;
26634;SDS011;14490;54.208;37.686;2023-09-12T13:21:53;4.35;;;2.63;;
26634;SDS011;14490;54.208;37.686;2023-09-12T13:24:31;5.00;;;2.92;;
26634;SDS011;14490;54.208;37.686;2023-09-12T13:26:58;3.60;;;2.65;;
26634;SDS011;14490;54.208;37.686;2023-09-12T13:29:27;5.75;;;3.83;;
26634;SDS011;14490;54.208;37.686;2023-09-12T13:31:54;3.45;;;2.35;;
26634;SDS011;14490;54.208;37.686;2023-09-12T13:34:23;3.80;;;2.90;;
26634;SDS011;14490;54.208;37.686;2023-09-12T13:36:55;4.72;;;2.97;;
26634;SDS011;14490;54.208;37.686;2023-09-12T13:39:30;3.85;;;2.80;;
26634;SDS011;14490;54.208;37.686;2023-09-12T13:41:57;5.55;;;3.00;;
26634;SDS011;14490;54.208;37.686;2023-09-12T13:44:28;5.60;;;2.67;;
26634;SDS011;14490;54.208;37.686;2023-09-12T13:46:57;6.78;;;3.35;;
26634;SDS011;14490;54.208;37.686;2023-09-12T13:49:24;3.75;;;3.05;;
26634;SDS011;14490;54.208;37.686;2023-09-12T13:52:03;5.00;;;3.20;;
26634;SDS011;14490;54.208;37.686;2023-09-12T13:54:37;3.92;;;2.78;;
26634;SDS011;14490;54.208;37.686;2023-09-12T13:57:06;2.72;;;2.28;;
26634;SDS011;14490;54.208;37.686;2023-09-12T13:59:33;5.15;;;3.05;;
26634;SDS011;14490;54.208;37.686;2023-09-12T14:02:00;3.28;;;2.97;;
26634;SDS011;14490;54.208;37.686;2023-09-12T14:04:28;6.20;;;3.03;;
26634;SDS011;14490;54.208;37.686;2023-09-12T14:06:59;2.97;;;2.65;;
26634;SDS011;14490;54.208;37.686;2023-09-12T14:09:29;5.13;;;2.65;;
26634;SDS011;14490;54.208;37.686;2023-09-12T14:11:59;2.60;;;2.40;;
26634;SDS011;14490;54.208;37.686;2023-09-12T14:14:29;2.90;;;2.60;;
26634;SDS011;14490;54.208;37.686;2023-09-12T14:16:56;3.80;;;3.20;;
26634;SDS011;14490;54.208;37.686;2023-09-12T14:19:25;4.30;;;2.67;;
26634;SDS011;14490;54.208;37.686;2023-09-12T14:22:00;3.17;;;2.53;;
26634;SDS011;14490;54.208;37.686;2023-09-12T14:24:27;2.70;;;2.50;;
26634;SDS011;14490;54.208;37.686;2023-09-12T14:26:54;3.65;;;2.42;;
26634;SDS011;14490;54.208;37.686;2023-09-12T14:29:24;9.40;;;3.03;;
26634;SDS011;14490;54.208;37.686;2023-09-12T14:31:53;3.00;;;2.70;;
26634;SDS011;14490;54.208;37.686;2023-09-12T14:36:53;2.85;;;2.53;;
26634;SDS011;14490;54.208;37.686;2023-09-12T14:39:21;3.10;;;2.80;;
26634;SDS011;14490;54.208;37.686;2023-09-12T14:41:49;5.70;;;3.10;;
26634;SDS011;14490;54.208;37.686;2023-09-12T14:44:17;2.92;;;2.30;;
26634;SDS011;14490;54.208;37.686;2023-09-12T14:46:53;2.95;;;2.63;;
26634;SDS011;14490;54.208;37.686;2023-09-12T14:49:20;2.55;;;2.35;;
26634;SDS011;14490;54.208;37.686;2023-09-12T14:51:47;2.67;;;2.42;;
26634;SDS011;14490;54.208;37.686;2023-09-12T14:54:14;5.72;;;2.75;;